Time;durP1;ratioP1;P1;durP2;ratioP2;P2;SDS_P1;SDS_P2;PMS_P1;PMS_P2;Temp;Humidity;BMP_temperature;BMP_pressure;BME280_temperature;BME280_humidity;BME280_pressure;Samples;Min_cycle;Max_cycle;Signal;HPM_P1;HPM_P2
2023/03/09 00:02:12;;;;;;;;;;;;;;;22.00;30.12;100016.20;103635;1309;61374;-82
2023/03/09 00:04:39;;;;;;;;;;;;;;;21.99;29.98;100014.09;103837;1309;75457;-82
2023/03/09 00:07:04;;;;;;;;;;;;;;;21.99;30.02;100014.98;103681;1308;61297;-82
2023/03/09 00:09:30;;;;;;;;;;;;;;;21.99;30.10;100013.75;103720;1308;61398;-82
2023/03/09 00:11:56;;;;;;;;;;;;;;;22.00;30.15;100011.38;103613;1308;61231;-81
2023/03/09 00:14:22;;;;;;;;;;;;;;;22.00;30.19;100005.26;103682;1308;61278;-81
2023/03/09 00:16:47;;;;;;;;;;;;;;;22.00;30.18;100003.98;103950;1309;61304;-82
2023/03/09 00:19:20;;;;;;;;;;;;;;;22.00;30.12;99998.41;103712;1309;61179;-82
2023/03/09 00:21:51;;;;;;;;;;;;;;;22.00;30.12;99997.20;103685;1308;61241;-82
2023/03/09 00:24:24;;;;;;;;;;;;;;;22.00;30.05;99992.36;103659;1308;73520;-81
2023/03/09 00:26:51;;;;;;;;;;;;;;;22.00;30.16;99988.77;103860;1308;74418;-82
2023/03/09 00:29:16;;;;;;;;;;;;;;;22.00;30.07;99982.34;103891;1308;61131;-82
2023/03/09 00:31:42;;;;;;;;;;;;;;;22.00;30.13;99976.60;103684;1308;61547;-82
2023/03/09 00:34:08;;;;;;;;;;;;;;;22.00;30.10;99970.52;103699;1308;61323;-82
2023/03/09 00:36:33;;;;;;;;;;;;;;;22.00;30.15;99969.24;103886;1308;61304;-82
2023/03/09 00:38:59;;;;;;;;;;;;;;;21.99;30.08;99968.56;103726;1308;61464;-82
2023/03/09 00:41:27;;;;;;;;;;;;;;;22.00;30.11;99969.44;103749;1308;61416;-82
2023/03/09 00:43:53;;;;;;;;;;;;;;;22.00;30.05;99972.50;103717;1308;61365;-82
2023/03/09 00:46:18;;;;;;;;;;;;;;;22.00;30.00;99971.93;103834;1309;61455;-82
2023/03/09 00:48:44;;;;;;;;;;;;;;;22.00;30.18;99970.35;103705;1308;61392;-82
2023/03/09 00:51:10;;;;;;;;;;;;;;;21.99;30.06;99968.92;103664;1308;61186;-82
2023/03/09 00:53:36;;;;;;;;;;;;;;;22.00;30.02;99968.70;103946;1308;61311;-82
2023/03/09 00:56:02;;;;;;;;;;;;;;;21.99;30.17;99972.16;103762;1308;61275;-82
2023/03/09 00:58:28;;;;;;;;;;;;;;;21.99;30.15;99974.85;103857;1308;72867;-82
2023/03/09 01:00:53;;;;;;;;;;;;;;;21.99;30.10;99976.63;103683;1308;61310;-82
2023/03/09 01:03:19;;;;;;;;;;;;;;;21.99;30.12;99971.96;103657;1308;61339;-81
2023/03/09 01:05:44;;;;;;;;;;;;;;;21.99;30.10;99972.50;103661;1308;61310;-82
2023/03/09 01:08:10;;;;;;;;;;;;;;;21.99;30.07;99968.73;103614;1308;61249;-82
2023/03/09 01:10:40;;;;;;;;;;;;;;;22.00;30.05;99964.07;103875;1308;61322;-81
2023/03/09 01:13:05;;;;;;;;;;;;;;;22.00;29.99;99958.33;103625;1308;73460;-81
2023/03/09 01:15:31;;;;;;;;;;;;;;;21.99;30.00;99959.77;103670;1309;61313;-82
2023/03/09 01:17:56;;;;;;;;;;;;;;;22.00;29.95;99957.59;103674;1314;61292;-82
2023/03/09 01:20:22;;;;;;;;;;;;;;;22.00;30.07;99955.44;103671;1309;61796;-82
2023/03/09 01:22:48;;;;;;;;;;;;;;;21.99;30.08;99951.54;103636;1308;61229;-82
2023/03/09 01:25:13;;;;;;;;;;;;;;;22.00;30.12;99949.13;103716;1308;61337;-82
2023/03/09 01:27:40;;;;;;;;;;;;;;;22.00;30.07;99944.09;103888;1308;61134;-82
2023/03/09 01:30:06;;;;;;;;;;;;;;;22.00;30.12;99941.07;103603;1308;61384;-82
2023/03/09 01:32:31;;;;;;;;;;;;;;;22.01;29.99;99939.91;103650;1308;59879;-82
2023/03/09 01:34:57;;;;;;;;;;;;;;;22.01;30.15;99941.58;103836;1309;61285;-82
2023/03/09 01:37:22;;;;;;;;;;;;;;;22.01;30.02;99942.45;103924;1308;61333;-82
2023/03/09 01:39:48;;;;;;;;;;;;;;;22.01;29.95;99948.90;103964;1308;61377;-82
2023/03/09 01:42:13;;;;;;;;;;;;;;;22.01;29.92;99943.55;103708;1309;61344;-82
2023/03/09 01:44:39;;;;;;;;;;;;;;;22.01;30.04;99944.95;103710;1308;61310;-82
2023/03/09 01:47:05;;;;;;;;;;;;;;;22.01;30.05;99948.00;103683;1308;61284;-82
2023/03/09 01:49:38;;;;;;;;;;;;;;;22.01;30.20;99948.34;103893;1308;61387;-82
2023/03/09 01:52:12;;;;;;;;;;;;;;;22.01;30.02;99952.84;103667;1308;61212;-82
2023/03/09 01:54:41;;;;;;;;;;;;;;;22.01;30.10;99955.16;103866;1308;71637;-82
2023/03/09 01:57:11;;;;;;;;;;;;;;;22.01;30.12;99955.48;103890;1308;74561;-82
2023/03/09 01:59:37;;;;;;;;;;;;;;;22.01;30.11;99951.05;103674;1308;61148;-82
2023/03/09 02:02:04;;;;;;;;;;;;;;;22.01;30.11;99953.17;103917;1308;61359;-82
2023/03/09 02:04:56;;;;;;;;;;;;;;;22.02;30.14;99950.63;103904;1308;61335;-83
2023/03/09 02:07:22;;;;;;;;;;;;;;;22.01;30.16;99947.41;103830;1308;75587;-83
2023/03/09 02:09:59;;;;;;;;;;;;;;;22.01;30.11;99947.06;103691;1309;61319;-82
2023/03/09 02:12:26;;;;;;;;;;;;;;;22.02;30.02;99943.09;103878;1308;61224;-82
2023/03/09 02:14:51;;;;;;;;;;;;;;;22.01;30.05;99940.96;103685;1308;72483;-82
2023/03/09 02:17:17;;;;;;;;;;;;;;;22.01;30.06;99935.23;103681;1308;60048;-82
2023/03/09 02:19:53;;;;;;;;;;;;;;;22.01;29.96;99934.34;103715;1308;61476;-82
2023/03/09 02:22:18;;;;;;;;;;;;;;;22.01;29.94;99930.59;103877;1309;61294;-83
2023/03/09 02:24:55;;;;;;;;;;;;;;;22.02;30.03;99931.45;103721;1309;61326;-83
2023/03/09 02:27:22;;;;;;;;;;;;;;;22.02;30.04;99927.69;103877;1308;74435;-83
2023/03/09 02:29:47;;;;;;;;;;;;;;;22.02;30.06;99933.06;103808;1309;61310;-83
2023/03/09 02:32:12;;;;;;;;;;;;;;;22.02;30.05;99929.84;103683;1308;61384;-83
2023/03/09 02:34:38;;;;;;;;;;;;;;;22.02;29.96;99933.21;103889;1311;61272;-82
2023/03/09 02:37:04;;;;;;;;;;;;;;;22.02;30.03;99932.88;103895;1308;61308;-82
2023/03/09 02:39:37;;;;;;;;;;;;;;;22.02;30.07;99932.89;103660;1308;59494;-84
2023/03/09 02:42:03;;;;;;;;;;;;;;;22.02;29.92;99928.73;103702;1308;61160;-83
2023/03/09 02:44:28;;;;;;;;;;;;;;;22.02;29.90;99924.27;103647;1310;61253;-82
2023/03/09 02:46:54;;;;;;;;;;;;;;;22.02;29.98;99920.52;103684;1313;61358;-81
2023/03/09 02:49:20;;;;;;;;;;;;;;;22.02;30.07;99926.05;103911;1308;61416;-82
2023/03/09 02:51:46;;;;;;;;;;;;;;;22.02;30.02;99923.17;103912;1309;61445;-82
2023/03/09 02:54:11;;;;;;;;;;;;;;;22.02;30.06;99929.64;103665;1308;61461;-82
2023/03/09 02:56:37;;;;;;;;;;;;;;;22.01;30.00;99930.94;103803;1308;61407;-82
2023/03/09 02:59:03;;;;;;;;;;;;;;;22.01;29.97;99931.48;103925;1309;61288;-82
2023/03/09 03:01:28;;;;;;;;;;;;;;;22.01;29.99;99926.11;103741;1308;61342;-82
2023/03/09 03:03:54;;;;;;;;;;;;;;;22.02;30.06;99926.42;103695;1308;61237;-83
2023/03/09 03:06:20;;;;;;;;;;;;;;;22.02;30.11;99919.98;103920;1309;61330;-83
2023/03/09 03:08:45;;;;;;;;;;;;;;;22.02;29.94;99923.36;103867;1308;61393;-83
2023/03/09 03:11:11;;;;;;;;;;;;;;;22.02;29.93;99919.63;103691;1309;61309;-83
2023/03/09 03:13:36;;;;;;;;;;;;;;;22.02;29.91;99918.89;103712;1308;61348;-82
2023/03/09 03:16:02;;;;;;;;;;;;;;;22.02;30.06;99918.89;103909;1308;61272;-83
2023/03/09 03:18:28;;;;;;;;;;;;;;;22.01;29.91;99913.75;103663;1309;61266;-82
2023/03/09 03:20:54;;;;;;;;;;;;;;;22.01;29.94;99913.59;103719;1308;61509;-82
2023/03/09 03:23:19;;;;;;;;;;;;;;;22.01;30.09;99909.08;103735;1308;61445;-82
2023/03/09 03:25:45;;;;;;;;;;;;;;;22.01;29.93;99910.55;103727;1308;61352;-82
2023/03/09 03:28:10;;;;;;;;;;;;;;;22.01;29.93;99914.31;103928;1308;61195;-82
2023/03/09 03:30:37;;;;;;;;;;;;;;;22.01;29.88;99917.69;103895;1311;61301;-83
2023/03/09 03:33:03;;;;;;;;;;;;;;;22.01;29.95;99916.77;103694;1312;61338;-83
2023/03/09 03:35:28;;;;;;;;;;;;;;;22.01;30.05;99922.57;103907;1308;61377;-83
2023/03/09 03:37:54;;;;;;;;;;;;;;;22.01;29.92;99927.95;103887;1309;61297;-82
2023/03/09 03:40:20;;;;;;;;;;;;;;;22.01;29.73;99929.92;103718;1309;61374;-82
2023/03/09 03:42:46;;;;;;;;;;;;;;;22.01;29.86;99941.67;103750;1308;61419;-82
2023/03/09 03:45:11;;;;;;;;;;;;;;;22.01;29.93;99938.02;103913;1308;74395;-83
2023/03/09 03:47:37;;;;;;;;;;;;;;;22.01;30.02;99940.42;103730;1309;61316;-82
2023/03/09 03:50:03;;;;;;;;;;;;;;;22.01;29.92;99941.55;103661;1308;61521;-82
2023/03/09 03:52:29;;;;;;;;;;;;;;;22.00;29.85;99945.17;103664;1308;61268;-82
2023/03/09 03:54:54;;;;;;;;;;;;;;;22.01;29.98;99942.96;103879;1308;61330;-82
2023/03/09 03:57:22;;;;;;;;;;;;;;;22.01;29.97;99940.98;103657;1311;61447;-82
2023/03/09 03:59:48;;;;;;;;;;;;;;;22.01;29.92;99941.89;103921;1308;61320;-83
2023/03/09 04:02:14;;;;;;;;;;;;;;;22.01;29.95;99940.65;103704;1308;61314;-83
2023/03/09 04:04:39;;;;;;;;;;;;;;;22.01;29.90;99938.46;103697;1308;61205;-83
2023/03/09 04:07:05;;;;;;;;;;;;;;;22.02;29.82;99935.58;103692;1308;61329;-84
2023/03/09 04:09:30;;;;;;;;;;;;;;;22.02;30.01;99937.71;103904;1308;61406;-83
2023/03/09 04:11:57;;;;;;;;;;;;;;;22.02;29.88;99939.88;103905;1309;61385;-83
2023/03/09 04:14:22;;;;;;;;;;;;;;;22.01;29.85;99934.71;103733;1308;61375;-83
2023/03/09 04:16:48;;;;;;;;;;;;;;;22.01;29.94;99935.41;103673;1308;61382;-82
2023/03/09 04:19:14;;;;;;;;;;;;;;;22.01;29.83;99930.97;103893;1308;61387;-82
2023/03/09 04:21:39;;;;;;;;;;;;;;;22.01;29.95;99930.63;103740;1308;61471;-83
2023/03/09 04:24:05;;;;;;;;;;;;;;;22.01;29.90;99925.42;103948;1308;61477;-83
2023/03/09 04:26:31;;;;;;;;;;;;;;;22.01;29.96;99928.84;103676;1314;61354;-83
2023/03/09 04:28:56;;;;;;;;;;;;;;;22.01;29.94;99928.28;103716;1308;61402;-83
2023/03/09 04:31:22;;;;;;;;;;;;;;;22.01;30.04;99930.60;103430;1312;61290;-82
2023/03/09 04:33:47;;;;;;;;;;;;;;;22.01;29.89;99931.65;103271;1311;61426;-82
2023/03/09 04:36:13;;;;;;;;;;;;;;;22.01;29.87;99927.90;103249;1311;61281;-82
2023/03/09 04:38:39;;;;;;;;;;;;;;;22.02;29.92;99923.58;103304;1311;61432;-81
2023/03/09 04:41:05;;;;;;;;;;;;;;;22.01;30.00;99924.48;103278;1311;62087;-82
2023/03/09 04:43:31;;;;;;;;;;;;;;;22.02;29.86;99931.09;103532;1315;61329;-82
2023/03/09 04:45:56;;;;;;;;;;;;;;;22.02;29.85;99929.11;103457;1312;61192;-82
2023/03/09 04:48:22;;;;;;;;;;;;;;;22.02;29.87;99929.27;103326;1311;61511;-82
2023/03/09 04:50:47;;;;;;;;;;;;;;;22.01;29.97;99926.30;103305;1314;61339;-81
2023/03/09 04:53:13;;;;;;;;;;;;;;;22.01;29.93;99927.90;103273;1311;61342;-83
2023/03/09 04:55:41;;;;;;;;;;;;;;;22.02;29.88;99927.30;103347;1312;61402;-82
2023/03/09 04:58:06;;;;;;;;;;;;;;;22.02;29.94;99923.73;103302;1311;61413;-83
2023/03/09 05:00:32;;;;;;;;;;;;;;;22.02;29.89;99925.54;103277;1311;61502;-83
2023/03/09 05:02:58;;;;;;;;;;;;;;;22.01;30.01;99925.21;103480;1308;61413;-83
2023/03/09 05:05:24;;;;;;;;;;;;;;;22.00;29.97;99922.41;103678;1308;61282;-82
2023/03/09 05:07:49;;;;;;;;;;;;;;;21.98;29.94;99922.60;103693;1308;61332;-81
2023/03/09 05:10:15;;;;;;;;;;;;;;;21.92;30.12;99920.96;103868;1308;61981;-81
2023/03/09 05:12:40;;;;;;;;;;;;;;;21.87;30.05;99922.56;103662;1308;61212;-82
2023/03/09 05:15:07;;;;;;;;;;;;;;;21.82;30.10;99920.33;103887;1308;61316;-82
2023/03/09 05:17:33;;;;;;;;;;;;;;;21.77;30.05;99923.91;103653;1311;61384;-82
2023/03/09 05:20:00;;;;;;;;;;;;;;;21.75;30.05;99924.31;103629;1308;61355;-81
2023/03/09 05:22:25;;;;;;;;;;;;;;;21.73;29.98;99917.35;103629;1308;61370;-81
2023/03/09 05:24:51;;;;;;;;;;;;;;;21.70;29.97;99919.86;103570;1314;61234;-80
2023/03/09 05:27:17;;;;;;;;;;;;;;;21.68;29.96;99917.87;103763;1309;61271;-82
2023/03/09 05:29:43;;;;;;;;;;;;;;;21.66;29.97;99911.81;103467;1310;61790;-81
2023/03/09 05:32:08;;;;;;;;;;;;;;;21.63;29.94;99909.04;103526;1309;61332;-80
2023/03/09 05:34:34;;;;;;;;;;;;;;;21.60;29.99;99906.08;103365;1308;61183;-80
2023/03/09 05:37:00;;;;;;;;;;;;;;;21.57;29.97;99904.04;103494;1308;61523;-81
2023/03/09 05:39:25;;;;;;;;;;;;;;;21.54;30.03;99905.39;103762;1308;61426;-81
2023/03/09 05:41:51;;;;;;;;;;;;;;;21.51;29.84;99904.90;103565;1308;61282;-81
2023/03/09 05:44:16;;;;;;;;;;;;;;;21.48;29.96;99910.55;103691;1311;61444;-81
2023/03/09 05:46:42;;;;;;;;;;;;;;;21.45;29.84;99916.35;103522;1308;61322;-81
2023/03/09 05:49:07;;;;;;;;;;;;;;;21.40;29.72;99923.02;103685;1309;61313;-81
2023/03/09 05:51:33;;;;;;;;;;;;;;;21.35;29.76;99928.95;103519;1309;59778;-81
2023/03/09 05:53:59;;;;;;;;;;;;;;;21.31;29.74;99931.50;103581;1309;60493;-82
2023/03/09 05:56:24;;;;;;;;;;;;;;;21.27;29.75;99932.32;103363;1308;61476;-81
2023/03/09 05:58:50;;;;;;;;;;;;;;;21.25;29.79;99927.89;103703;1308;59744;-81
2023/03/09 06:01:20;;;;;;;;;;;;;;;21.22;29.52;99926.36;103604;1309;71619;-81
2023/03/09 06:03:45;;;;;;;;;;;;;;;21.17;29.51;99930.00;103446;1315;72388;-82
2023/03/09 06:06:11;;;;;;;;;;;;;;;21.14;29.48;99934.36;103316;1308;60083;-81
2023/03/09 06:08:36;;;;;;;;;;;;;;;21.09;29.44;99940.15;103642;1308;59507;-81
2023/03/09 06:11:02;;;;;;;;;;;;;;;21.08;29.53;99941.64;103735;1308;61436;-81
2023/03/09 06:13:27;;;;;;;;;;;;;;;21.09;29.57;99948.34;103828;1308;61287;-82
2023/03/09 06:15:53;;;;;;;;;;;;;;;21.11;29.73;99946.25;103800;1311;61317;-81
2023/03/09 06:18:18;;;;;;;;;;;;;;;21.12;29.54;99945.59;103674;1308;61337;-81
2023/03/09 06:20:44;;;;;;;;;;;;;;;21.15;29.66;99949.30;103550;1308;61333;-80
2023/03/09 06:23:10;;;;;;;;;;;;;;;21.18;29.59;99952.06;103302;1308;61340;-80
2023/03/09 06:25:36;;;;;;;;;;;;;;;21.22;29.61;99949.73;103314;1312;59343;-80
2023/03/09 06:28:01;;;;;;;;;;;;;;;21.27;29.51;99954.17;103499;1308;61469;-80
2023/03/09 06:30:28;;;;;;;;;;;;;;;21.31;29.68;99955.46;103182;1309;62816;-80
2023/03/09 06:32:54;;;;;;;;;;;;;;;21.35;29.63;99958.16;103300;1311;61333;-81
2023/03/09 06:35:19;;;;;;;;;;;;;;;21.36;29.63;99952.10;103621;1308;59786;-81
2023/03/09 06:37:47;;;;;;;;;;;;;;;21.39;29.66;99954.77;103687;1308;62084;-81
2023/03/09 06:40:13;;;;;;;;;;;;;;;21.39;29.84;99955.65;103521;1308;60975;-81
2023/03/09 06:42:39;;;;;;;;;;;;;;;21.38;29.92;99946.92;103533;1310;61452;-81
2023/03/09 06:45:06;;;;;;;;;;;;;;;21.38;29.84;99941.48;103692;1308;61253;-81
2023/03/09 06:47:31;;;;;;;;;;;;;;;21.36;29.86;99935.69;103453;1308;61224;-80
2023/03/09 06:49:58;;;;;;;;;;;;;;;21.35;29.71;99936.48;103607;1308;61432;-82
2023/03/09 06:52:25;;;;;;;;;;;;;;;21.34;29.75;99934.58;103572;1308;60434;-82
2023/03/09 06:54:51;;;;;;;;;;;;;;;21.33;29.71;99930.18;103517;1308;59733;-82
2023/03/09 06:57:17;;;;;;;;;;;;;;;21.31;29.66;99928.80;103501;1308;61413;-81
2023/03/09 06:59:42;;;;;;;;;;;;;;;21.26;29.71;99932.44;103623;1308;61369;-81
2023/03/09 07:02:12;;;;;;;;;;;;;;;21.27;30.04;99933.59;103221;1309;653048;-81
2023/03/09 07:04:38;;;;;;;;;;;;;;;21.28;30.01;99933.91;103688;1311;61236;-81
2023/03/09 07:07:04;;;;;;;;;;;;;;;21.26;29.87;99929.89;103507;1308;61320;-81
2023/03/09 07:09:31;;;;;;;;;;;;;;;21.25;29.86;99929.31;103637;1310;61356;-82
2023/03/09 07:11:57;;;;;;;;;;;;;;;21.20;29.90;99923.81;103643;1308;61148;-81
2023/03/09 07:14:23;;;;;;;;;;;;;;;21.19;29.76;99923.73;103568;1313;61387;-81
2023/03/09 07:16:51;;;;;;;;;;;;;;;21.19;29.92;99920.16;103736;1308;61461;-82
2023/03/09 07:19:17;;;;;;;;;;;;;;;21.19;29.79;99911.73;103722;1309;61163;-80
2023/03/09 07:21:43;;;;;;;;;;;;;;;21.20;29.78;99908.95;103663;1312;61308;-80
2023/03/09 07:24:09;;;;;;;;;;;;;;;21.21;29.93;99907.98;103588;1308;61326;-81
2023/03/09 07:26:34;;;;;;;;;;;;;;;21.22;29.84;99913.59;103365;1308;59534;-80
2023/03/09 07:29:00;;;;;;;;;;;;;;;21.23;29.86;99915.32;103382;1308;61323;-80
2023/03/09 07:31:26;;;;;;;;;;;;;;;21.24;29.70;99915.61;103130;1308;63588;-80
2023/03/09 07:33:52;;;;;;;;;;;;;;;21.24;29.74;99919.52;103125;1308;61528;-81
2023/03/09 07:36:18;;;;;;;;;;;;;;;21.24;29.83;99923.11;103741;1308;61263;-80
2023/03/09 07:38:43;;;;;;;;;;;;;;;21.25;29.78;99927.28;103477;1309;61416;-80
2023/03/09 07:41:09;;;;;;;;;;;;;;;21.25;29.78;99929.46;103487;1308;61271;-80
2023/03/09 07:43:43;;;;;;;;;;;;;;;21.25;29.87;99928.00;103522;1311;59997;-80
2023/03/09 07:46:16;;;;;;;;;;;;;;;21.26;29.77;99930.06;103534;1308;72338;-80
2023/03/09 07:48:42;;;;;;;;;;;;;;;21.27;29.70;99924.30;103213;1308;74670;-80
2023/03/09 07:51:07;;;;;;;;;;;;;;;21.29;29.72;99920.79;103854;1311;61257;-81
2023/03/09 07:53:33;;;;;;;;;;;;;;;21.28;29.63;99924.05;103690;1308;59680;-80
2023/03/09 07:56:02;;;;;;;;;;;;;;;21.21;29.83;99927.11;103719;1310;60297;-83
2023/03/09 07:58:28;;;;;;;;;;;;;;;21.18;29.94;99926.70;103576;1308;74952;-81
2023/03/09 08:00:54;;;;;;;;;;;;;;;21.17;30.16;99930.90;103375;1308;61290;-80
2023/03/09 08:03:20;;;;;;;;;;;;;;;21.17;30.18;99930.15;103537;1311;61320;-81
2023/03/09 08:05:47;;;;;;;;;;;;;;;21.17;30.24;99927.61;103498;1308;59632;-82
2023/03/09 08:08:13;;;;;;;;;;;;;;;21.19;30.46;99922.98;103508;1308;61301;-82
2023/03/09 08:10:40;;;;;;;;;;;;;;;21.21;30.50;99924.27;103219;1309;61356;-81
2023/03/09 08:13:05;;;;;;;;;;;;;;;21.22;30.42;99926.48;103651;1309;60990;-80
2023/03/09 08:15:31;;;;;;;;;;;;;;;21.18;30.55;99927.21;103195;1311;61274;-82
2023/03/09 08:17:56;;;;;;;;;;;;;;;21.17;30.59;99927.61;103525;1314;59460;-81
2023/03/09 08:20:22;;;;;;;;;;;;;;;21.20;30.60;99922.75;103667;1310;74940;-81
2023/03/09 08:22:47;;;;;;;;;;;;;;;21.22;30.69;99920.02;103741;1309;60223;-81
2023/03/09 08:25:13;;;;;;;;;;;;;;;21.24;30.73;99916.98;103537;1308;61304;-81
2023/03/09 08:27:43;;;;;;;;;;;;;;;21.26;30.79;99916.66;103498;1309;61384;-81
2023/03/09 08:30:09;;;;;;;;;;;;;;;21.28;30.78;99918.88;104449;1308;75405;-82
2023/03/09 08:32:35;;;;;;;;;;;;;;;21.29;30.75;99920.09;103766;1309;60819;-81
2023/03/09 08:35:00;;;;;;;;;;;;;;;21.28;30.62;99915.44;103464;1308;60172;-81
2023/03/09 08:37:26;;;;;;;;;;;;;;;21.29;30.56;99916.96;103553;1309;59679;-81
2023/03/09 08:39:51;;;;;;;;;;;;;;;21.30;30.57;99924.27;103596;1308;61287;-81
2023/03/09 08:42:17;;;;;;;;;;;;;;;21.30;30.64;99927.65;103707;1309;61311;-81
2023/03/09 08:44:43;;;;;;;;;;;;;;;21.30;30.53;99920.47;103472;1309;61227;-81
2023/03/09 08:47:09;;;;;;;;;;;;;;;21.30;30.55;99916.19;103547;1308;61240;-81
2023/03/09 08:49:37;;;;;;;;;;;;;;;21.30;30.48;99914.55;103682;1308;59530;-81
2023/03/09 08:52:03;;;;;;;;;;;;;;;21.31;30.63;99922.35;103680;1310;73438;-80
2023/03/09 08:54:28;;;;;;;;;;;;;;;21.31;30.46;99919.52;103664;1308;61320;-80
2023/03/09 08:56:54;;;;;;;;;;;;;;;21.31;30.42;99915.20;103548;1311;61272;-80
2023/03/09 08:59:19;;;;;;;;;;;;;;;21.28;30.33;99908.80;103549;1308;61284;-80
2023/03/09 09:01:45;;;;;;;;;;;;;;;21.25;30.34;99907.60;103533;1309;59826;-80
2023/03/09 09:04:10;;;;;;;;;;;;;;;21.26;30.37;99905.96;103572;1314;61386;-80
2023/03/09 09:06:37;;;;;;;;;;;;;;;21.25;30.52;99901.38;103689;1314;59671;-80
2023/03/09 09:09:02;;;;;;;;;;;;;;;21.28;30.68;99908.14;103552;1309;61301;-82
2023/03/09 09:11:29;;;;;;;;;;;;;;;21.31;30.83;99908.77;103751;1312;62917;-80
2023/03/09 09:13:54;;;;;;;;;;;;;;;21.33;30.95;99897.82;103587;1308;61372;-80
2023/03/09 09:16:20;;;;;;;;;;;;;;;21.35;31.07;99897.33;104313;1308;60013;-80
2023/03/09 09:18:46;;;;;;;;;;;;;;;21.37;31.26;99896.41;104137;1308;59731;-81
2023/03/09 09:21:13;;;;;;;;;;;;;;;21.39;31.15;99892.48;103764;1313;61346;-80
2023/03/09 09:23:38;;;;;;;;;;;;;;;21.41;31.18;99887.13;103644;1309;72543;-80
2023/03/09 09:26:04;;;;;;;;;;;;;;;21.42;31.26;99884.31;103688;1308;61374;-80
2023/03/09 09:28:30;;;;;;;;;;;;;;;21.45;31.17;99886.27;103702;1308;61315;-80
2023/03/09 09:30:56;;;;;;;;;;;;;;;21.47;31.20;99884.66;103738;1314;59472;-80
2023/03/09 09:33:22;;;;;;;;;;;;;;;21.48;31.18;99882.58;104183;1308;59167;-80
2023/03/09 09:36:02;;;;;;;;;;;;;;;21.49;31.11;99880.20;103521;1309;61269;-81
2023/03/09 09:38:28;;;;;;;;;;;;;;;21.48;30.92;99870.58;103514;1309;61301;-80
2023/03/09 09:40:54;;;;;;;;;;;;;;;21.48;31.05;99870.97;103592;1311;61310;-81
2023/03/09 09:43:20;;;;;;;;;;;;;;;21.49;31.00;99866.04;103554;1309;61267;-80
2023/03/09 09:45:46;;;;;;;;;;;;;;;21.50;31.06;99864.89;103471;1308;61730;-80
2023/03/09 09:48:15;;;;;;;;;;;;;;;21.51;31.05;99865.27;103765;1308;61291;-81
2023/03/09 09:50:41;;;;;;;;;;;;;;;21.53;31.28;99860.31;103548;1309;61258;-81
2023/03/09 09:53:28;;;;;;;;;;;;;;;21.57;31.71;99856.38;103768;1313;61355;-80
2023/03/09 09:55:53;;;;;;;;;;;;;;;21.64;31.94;99850.09;103706;1308;75265;-81
2023/03/09 09:58:22;;;;;;;;;;;;;;;21.68;32.00;99846.08;103649;1308;61338;-80
2023/03/09 10:00:49;;;;;;;;;;;;;;;21.71;32.25;99839.95;103693;1313;61145;-81
2023/03/09 10:03:25;;;;;;;;;;;;;;;21.72;32.18;99834.25;103506;1308;73548;-81
2023/03/09 10:06:06;;;;;;;;;;;;;;;21.73;32.26;99830.27;103688;1309;74461;-81
2023/03/09 10:08:38;;;;;;;;;;;;;;;21.72;32.42;99839.29;103640;1308;59850;-81
2023/03/09 10:11:25;;;;;;;;;;;;;;;21.69;32.59;99835.44;103619;1308;61216;-81
2023/03/09 10:13:53;;;;;;;;;;;;;;;21.73;32.65;99822.58;103644;1314;71715;-80
2023/03/09 10:16:20;;;;;;;;;;;;;;;21.74;32.61;99823.05;103456;1314;74752;-80
2023/03/09 10:18:48;;;;;;;;;;;;;;;21.73;32.54;99821.84;104102;1308;60257;-81
2023/03/09 10:21:19;;;;;;;;;;;;;;;21.73;32.62;99824.86;104355;1309;60524;-80
2023/03/09 10:23:45;;;;;;;;;;;;;;;21.74;32.40;99812.98;103916;1311;72549;-81
2023/03/09 10:26:16;;;;;;;;;;;;;;;21.75;32.43;99811.61;103641;1308;61416;-80
2023/03/09 10:28:42;;;;;;;;;;;;;;;21.73;32.28;99806.43;103215;1308;61170;-81
2023/03/09 10:31:18;;;;;;;;;;;;;;;21.71;32.00;99801.79;104249;1308;59526;-80
2023/03/09 10:33:52;;;;;;;;;;;;;;;21.71;32.09;99802.14;104180;1309;72716;-81
2023/03/09 10:36:26;;;;;;;;;;;;;;;21.72;32.11;99805.08;104482;1308;73374;-80
2023/03/09 10:38:53;;;;;;;;;;;;;;;21.75;32.12;99793.90;104249;1308;62093;-80
2023/03/09 10:41:19;;;;;;;;;;;;;;;21.77;32.20;99789.95;103485;1308;61322;-80
2023/03/09 10:43:45;;;;;;;;;;;;;;;21.80;32.04;99785.45;103566;1314;59772;-81
2023/03/09 10:46:16;;;;;;;;;;;;;;;21.81;31.94;99777.65;103523;1309;61154;-81
2023/03/09 10:48:42;;;;;;;;;;;;;;;21.79;31.86;99776.01;103676;1309;59945;-82
2023/03/09 10:51:37;;;;;;;;;;;;;;;21.79;31.88;99769.77;103569;1314;59441;-81
2023/03/09 10:54:33;;;;;;;;;;;;;;;21.78;31.87;99763.06;103355;1308;72437;-81
2023/03/09 10:56:59;;;;;;;;;;;;;;;21.79;31.81;99759.59;102356;1314;75922;-81
2023/03/09 10:59:25;;;;;;;;;;;;;;;21.80;31.71;99753.77;102478;1314;61278;-82
2023/03/09 11:01:51;;;;;;;;;;;;;;;21.79;31.76;99747.35;102966;1317;61371;-81
2023/03/09 11:04:26;;;;;;;;;;;;;;;21.76;31.71;99742.03;103063;1315;60197;-81
2023/03/09 11:06:55;;;;;;;;;;;;;;;21.72;31.69;99740.27;103010;1317;74474;-81
2023/03/09 11:09:24;;;;;;;;;;;;;;;21.70;31.73;99740.86;103372;1314;60983;-81
2023/03/09 11:11:50;;;;;;;;;;;;;;;21.70;31.87;99732.42;102793;1314;61969;-81
2023/03/09 11:14:23;;;;;;;;;;;;;;;21.72;31.97;99724.68;102293;1315;72542;-80
2023/03/09 11:16:53;;;;;;;;;;;;;;;21.72;32.01;99714.16;103811;1317;74627;-80
2023/03/09 11:19:19;;;;;;;;;;;;;;;21.70;31.86;99708.92;103777;1315;60842;-80
2023/03/09 11:21:56;;;;;;;;;;;;;;;21.71;32.03;99710.14;103698;1315;59521;-80
2023/03/09 11:24:22;;;;;;;;;;;;;;;21.73;31.97;99709.35;103871;1313;74002;-81
2023/03/09 11:26:58;;;;;;;;;;;;;;;21.73;31.85;99711.51;103815;1315;60637;-81
2023/03/09 11:29:24;;;;;;;;;;;;;;;21.74;31.93;99708.23;103913;1314;60045;-81
2023/03/09 11:31:49;;;;;;;;;;;;;;;21.75;31.89;99700.77;103150;1316;61770;-80
2023/03/09 11:34:35;;;;;;;;;;;;;;;21.76;31.97;99705.13;103471;1311;59392;-80
2023/03/09 11:37:08;;;;;;;;;;;;;;;21.78;31.86;99703.96;103586;1309;74634;-81
2023/03/09 11:39:35;;;;;;;;;;;;;;;21.78;31.76;99705.73;103477;1312;61227;-80
2023/03/09 11:42:04;;;;;;;;;;;;;;;21.79;31.63;99704.92;103659;1313;61205;-80
2023/03/09 11:44:31;;;;;;;;;;;;;;;21.78;31.81;99703.40;103542;1309;72918;-80
2023/03/09 11:47:00;;;;;;;;;;;;;;;21.78;31.74;99702.36;103464;1314;74622;-80
2023/03/09 11:49:25;;;;;;;;;;;;;;;21.78;31.88;99698.58;103611;1309;59956;-80
2023/03/09 11:51:57;;;;;;;;;;;;;;;21.79;31.84;99697.27;103497;1309;61400;-81
2023/03/09 11:54:25;;;;;;;;;;;;;;;21.80;31.66;99696.23;103623;1308;72716;-81
2023/03/09 11:56:51;;;;;;;;;;;;;;;21.80;31.81;99698.22;103676;1309;74713;-80
2023/03/09 11:59:21;;;;;;;;;;;;;;;21.80;31.78;99696.92;103470;1308;59571;-80
2023/03/09 12:01:47;;;;;;;;;;;;;;;21.80;31.87;99693.56;103271;1311;61049;-80
2023/03/09 12:04:14;;;;;;;;;;;;;;;21.78;31.87;99688.20;103432;1313;61302;-81
2023/03/09 12:06:50;;;;;;;;;;;;;;;21.77;32.11;99692.50;103478;1314;59488;-81
2023/03/09 12:09:25;;;;;;;;;;;;;;;21.79;32.04;99690.94;103766;1311;61160;-81
2023/03/09 12:11:52;;;;;;;;;;;;;;;21.79;32.03;99693.47;103848;1308;60471;-81
2023/03/09 12:14:44;;;;;;;;;;;;;;;21.79;32.18;99691.46;103644;1308;72912;-82
2023/03/09 12:17:15;;;;;;;;;;;;;;;21.76;31.93;99687.09;103528;1310;75687;-81
2023/03/09 12:19:42;;;;;;;;;;;;;;;21.75;31.91;99687.88;104452;1312;60818;-81
2023/03/09 12:22:15;;;;;;;;;;;;;;;21.75;32.01;99692.34;104404;1309;60090;-82
2023/03/09 12:24:42;;;;;;;;;;;;;;;21.74;31.91;99688.20;104200;1312;72550;-81
2023/03/09 12:27:10;;;;;;;;;;;;;;;21.73;31.89;99682.73;103627;1313;75412;-81
2023/03/09 12:29:43;;;;;;;;;;;;;;;21.73;31.87;99677.92;103665;1309;60183;-81
2023/03/09 12:32:16;;;;;;;;;;;;;;;21.71;31.85;99676.43;103786;1309;61111;-81
2023/03/09 12:34:42;;;;;;;;;;;;;;;21.70;32.02;99674.91;103757;1311;73566;-81
2023/03/09 12:37:27;;;;;;;;;;;;;;;21.69;32.06;99672.66;103504;1308;60125;-80